Canyon Lake, Texas
Current Conditions -  °F | °C
As of 5:51 PM on Wednesday 26 Nov 2014 (Local Time) from KBAZ Reporting Station
Clear Clear  
Wind Chill: 60°   Ceiling: Unl
Heat Index: 60°   Visibility: 10mi
Dew Point: 37°   Wind: 7mph
Humidity: 42%   Direction: 200°SSW
Pressure: 30.19"   Gusts: NA
Location:  29.84°N, 98.27°W
Report Text: KBAZ 262351Z 20006KT 10SM CLR 16/03 A3019 RMK AO2 SLP222 T01560028 10233 20156 53007
Loading
Personal Weather Stations






























Interactive Weather Map New forecast layout! Learn more

10-Day Weather Forecast

Advertisements
Track Severe Weather on mobile